sensor_id;sensor_type;location;lat;lon;timestamp;P1;durP1;ratioP1;P2;durP2;ratioP2
28762;SDS011;15918;51.270;6.522;2023-04-24T00:00:20;1.48;;;1.15;;
28762;SDS011;15918;51.270;6.522;2023-04-24T00:02:45;1.85;;;1.58;;
28762;SDS011;15918;51.270;6.522;2023-04-24T00:05:12;1.55;;;1.20;;
28762;SDS011;15918;51.270;6.522;2023-04-24T00:07:39;1.98;;;1.10;;
28762;SDS011;15918;51.270;6.522;2023-04-24T00:10:10;1.40;;;1.00;;
28762;SDS011;15918;51.270;6.522;2023-04-24T00:12:35;3.85;;;1.25;;
28762;SDS011;15918;51.270;6.522;2023-04-24T00:15:01;2.45;;;1.50;;
28762;SDS011;15918;51.270;6.522;2023-04-24T00:17:27;3.65;;;1.63;;
28762;SDS011;15918;51.270;6.522;2023-04-24T00:19:53;2.00;;;1.40;;
28762;SDS011;15918;51.270;6.522;2023-04-24T00:22:23;1.70;;;1.60;;
28762;SDS011;15918;51.270;6.522;2023-04-24T00:24:50;3.45;;;2.00;;
28762;SDS011;15918;51.270;6.522;2023-04-24T00:27:15;2.63;;;2.03;;
28762;SDS011;15918;51.270;6.522;2023-04-24T00:29:41;4.75;;;2.28;;
28762;SDS011;15918;51.270;6.522;2023-04-24T00:32:07;6.45;;;3.00;;
28762;SDS011;15918;51.270;6.522;2023-04-24T00:34:32;3.97;;;2.90;;
28762;SDS011;15918;51.270;6.522;2023-04-24T00:36:58;7.85;;;3.45;;
28762;SDS011;15918;51.270;6.522;2023-04-24T00:39:23;6.63;;;4.00;;
28762;SDS011;15918;51.270;6.522;2023-04-24T00:41:49;3.88;;;3.40;;
28762;SDS011;15918;51.270;6.522;2023-04-24T00:44:16;7.00;;;3.83;;
28762;SDS011;15918;51.270;6.522;2023-04-24T00:46:41;5.55;;;4.03;;
28762;SDS011;15918;51.270;6.522;2023-04-24T00:49:07;6.10;;;4.22;;
28762;SDS011;15918;51.270;6.522;2023-04-24T00:51:33;8.70;;;4.55;;
28762;SDS011;15918;51.270;6.522;2023-04-24T00:53:59;7.18;;;4.72;;
28762;SDS011;15918;51.270;6.522;2023-04-24T00:56:26;7.57;;;5.15;;
28762;SDS011;15918;51.270;6.522;2023-04-24T00:58:52;6.90;;;4.80;;
28762;SDS011;15918;51.270;6.522;2023-04-24T01:01:21;5.95;;;5.20;;
28762;SDS011;15918;51.270;6.522;2023-04-24T01:03:47;6.38;;;4.95;;
28762;SDS011;15918;51.270;6.522;2023-04-24T01:06:15;6.60;;;4.60;;
28762;SDS011;15918;51.270;6.522;2023-04-24T01:08:41;8.90;;;4.78;;
28762;SDS011;15918;51.270;6.522;2023-04-24T01:11:07;10.93;;;4.63;;
28762;SDS011;15918;51.270;6.522;2023-04-24T01:13:33;5.90;;;4.53;;
28762;SDS011;15918;51.270;6.522;2023-04-24T01:15:59;7.30;;;4.80;;
28762;SDS011;15918;51.270;6.522;2023-04-24T01:18:25;5.32;;;4.60;;
28762;SDS011;15918;51.270;6.522;2023-04-24T01:20:53;5.75;;;4.57;;
28762;SDS011;15918;51.270;6.522;2023-04-24T01:23:21;6.93;;;4.15;;
28762;SDS011;15918;51.270;6.522;2023-04-24T01:25:47;5.20;;;3.75;;
28762;SDS011;15918;51.270;6.522;2023-04-24T01:28:14;6.93;;;4.57;;
28762;SDS011;15918;51.270;6.522;2023-04-24T01:30:40;5.00;;;4.50;;
28762;SDS011;15918;51.270;6.522;2023-04-24T01:33:06;9.63;;;5.47;;
28762;SDS011;15918;51.270;6.522;2023-04-24T01:35:32;5.78;;;4.57;;
28762;SDS011;15918;51.270;6.522;2023-04-24T01:37:59;10.40;;;5.70;;
28762;SDS011;15918;51.270;6.522;2023-04-24T01:40:25;9.38;;;5.95;;
28762;SDS011;15918;51.270;6.522;2023-04-24T01:42:50;11.18;;;5.93;;
28762;SDS011;15918;51.270;6.522;2023-04-24T01:45:16;10.95;;;6.38;;
28762;SDS011;15918;51.270;6.522;2023-04-24T01:47:42;8.68;;;6.28;;
28762;SDS011;15918;51.270;6.522;2023-04-24T01:50:08;9.50;;;7.07;;
28762;SDS011;15918;51.270;6.522;2023-04-24T01:52:34;8.32;;;6.55;;
28762;SDS011;15918;51.270;6.522;2023-04-24T01:55:00;9.70;;;6.78;;
28762;SDS011;15918;51.270;6.522;2023-04-24T01:57:27;10.82;;;7.30;;
28762;SDS011;15918;51.270;6.522;2023-04-24T01:59:55;12.40;;;6.75;;
28762;SDS011;15918;51.270;6.522;2023-04-24T02:02:21;12.20;;;6.82;;
28762;SDS011;15918;51.270;6.522;2023-04-24T02:04:48;13.27;;;6.85;;
28762;SDS011;15918;51.270;6.522;2023-04-24T02:07:14;12.55;;;7.70;;
28762;SDS011;15918;51.270;6.522;2023-04-24T02:09:40;11.13;;;7.00;;
28762;SDS011;15918;51.270;6.522;2023-04-24T02:12:06;15.32;;;8.52;;
28762;SDS011;15918;51.270;6.522;2023-04-24T02:14:31;12.90;;;8.38;;
28762;SDS011;15918;51.270;6.522;2023-04-24T02:16:57;11.02;;;8.23;;
28762;SDS011;15918;51.270;6.522;2023-04-24T02:19:22;14.38;;;8.63;;
28762;SDS011;15918;51.270;6.522;2023-04-24T02:21:48;13.70;;;8.27;;
28762;SDS011;15918;51.270;6.522;2023-04-24T02:24:13;13.75;;;8.93;;
28762;SDS011;15918;51.270;6.522;2023-04-24T02:26:40;13.13;;;9.23;;
28762;SDS011;15918;51.270;6.522;2023-04-24T02:29:06;12.95;;;9.05;;
28762;SDS011;15918;51.270;6.522;2023-04-24T02:31:32;15.43;;;9.43;;
28762;SDS011;15918;51.270;6.522;2023-04-24T02:33:57;16.50;;;10.85;;
28762;SDS011;15918;51.270;6.522;2023-04-24T02:36:23;18.10;;;11.32;;
28762;SDS011;15918;51.270;6.522;2023-04-24T02:38:49;17.02;;;10.70;;
28762;SDS011;15918;51.270;6.522;2023-04-24T02:41:14;16.48;;;10.85;;
28762;SDS011;15918;51.270;6.522;2023-04-24T02:43:40;14.57;;;10.48;;
28762;SDS011;15918;51.270;6.522;2023-04-24T02:46:05;14.27;;;10.73;;
28762;SDS011;15918;51.270;6.522;2023-04-24T02:48:31;11.98;;;10.38;;
28762;SDS011;15918;51.270;6.522;2023-04-24T02:50:56;17.10;;;11.25;;
28762;SDS011;15918;51.270;6.522;2023-04-24T02:53:22;18.80;;;10.98;;
28762;SDS011;15918;51.270;6.522;2023-04-24T02:55:48;18.27;;;11.45;;
28762;SDS011;15918;51.270;6.522;2023-04-24T02:58:14;20.40;;;11.75;;
28762;SDS011;15918;51.270;6.522;2023-04-24T03:00:39;17.88;;;11.32;;
28762;SDS011;15918;51.270;6.522;2023-04-24T03:03:05;16.48;;;10.65;;
28762;SDS011;15918;51.270;6.522;2023-04-24T03:05:31;20.20;;;10.98;;
28762;SDS011;15918;51.270;6.522;2023-04-24T03:07:57;19.30;;;10.98;;
28762;SDS011;15918;51.270;6.522;2023-04-24T03:10:23;14.90;;;10.90;;
28762;SDS011;15918;51.270;6.522;2023-04-24T03:12:48;16.67;;;10.73;;
28762;SDS011;15918;51.270;6.522;2023-04-24T03:15:14;17.55;;;11.20;;
28762;SDS011;15918;51.270;6.522;2023-04-24T03:17:40;16.63;;;10.00;;
28762;SDS011;15918;51.270;6.522;2023-04-24T03:20:06;18.58;;;10.75;;
28762;SDS011;15918;51.270;6.522;2023-04-24T03:22:34;15.52;;;10.48;;
28762;SDS011;15918;51.270;6.522;2023-04-24T03:24:59;17.48;;;10.43;;
28762;SDS011;15918;51.270;6.522;2023-04-24T03:27:25;15.15;;;11.00;;
28762;SDS011;15918;51.270;6.522;2023-04-24T03:29:51;18.27;;;10.80;;
28762;SDS011;15918;51.270;6.522;2023-04-24T03:32:20;16.85;;;10.55;;
28762;SDS011;15918;51.270;6.522;2023-04-24T03:34:47;13.45;;;10.13;;
28762;SDS011;15918;51.270;6.522;2023-04-24T03:37:13;17.63;;;10.38;;
28762;SDS011;15918;51.270;6.522;2023-04-24T03:39:39;17.95;;;10.10;;
28762;SDS011;15918;51.270;6.522;2023-04-24T03:42:04;16.50;;;11.27;;
28762;SDS011;15918;51.270;6.522;2023-04-24T03:44:30;15.15;;;10.38;;
28762;SDS011;15918;51.270;6.522;2023-04-24T03:46:55;17.33;;;9.60;;
28762;SDS011;15918;51.270;6.522;2023-04-24T03:49:23;15.85;;;10.93;;
28762;SDS011;15918;51.270;6.522;2023-04-24T03:51:48;15.80;;;9.88;;
28762;SDS011;15918;51.270;6.522;2023-04-24T03:54:14;16.48;;;10.98;;
28762;SDS011;15918;51.270;6.522;2023-04-24T03:56:39;18.52;;;10.77;;
28762;SDS011;15918;51.270;6.522;2023-04-24T03:59:05;12.38;;;10.45;;
28762;SDS011;15918;51.270;6.522;2023-04-24T04:01:31;15.48;;;9.73;;
28762;SDS011;15918;51.270;6.522;2023-04-24T04:03:56;17.60;;;10.25;;
28762;SDS011;15918;51.270;6.522;2023-04-24T04:06:22;14.80;;;9.82;;
28762;SDS011;15918;51.270;6.522;2023-04-24T04:08:47;15.13;;;9.68;;
28762;SDS011;15918;51.270;6.522;2023-04-24T04:11:13;14.65;;;9.48;;
28762;SDS011;15918;51.270;6.522;2023-04-24T04:13:38;15.40;;;9.85;;
28762;SDS011;15918;51.270;6.522;2023-04-24T04:16:04;14.93;;;9.35;;
28762;SDS011;15918;51.270;6.522;2023-04-24T04:18:30;12.52;;;9.15;;
28762;SDS011;15918;51.270;6.522;2023-04-24T04:20:56;13.90;;;9.57;;
28762;SDS011;15918;51.270;6.522;2023-04-24T04:23:22;12.18;;;9.65;;
28762;SDS011;15918;51.270;6.522;2023-04-24T04:25:48;14.75;;;8.88;;
28762;SDS011;15918;51.270;6.522;2023-04-24T04:28:15;10.75;;;8.00;;
28762;SDS011;15918;51.270;6.522;2023-04-24T04:30:40;14.52;;;8.73;;
28762;SDS011;15918;51.270;6.522;2023-04-24T04:33:06;12.35;;;8.65;;
28762;SDS011;15918;51.270;6.522;2023-04-24T04:35:33;12.20;;;8.88;;
28762;SDS011;15918;51.270;6.522;2023-04-24T04:37:59;11.73;;;8.20;;
28762;SDS011;15918;51.270;6.522;2023-04-24T04:40:25;9.88;;;8.45;;
28762;SDS011;15918;51.270;6.522;2023-04-24T04:42:53;14.95;;;8.15;;
28762;SDS011;15918;51.270;6.522;2023-04-24T04:45:18;11.23;;;8.30;;
28762;SDS011;15918;51.270;6.522;2023-04-24T04:47:45;12.10;;;9.23;;
28762;SDS011;15918;51.270;6.522;2023-04-24T04:50:11;10.88;;;9.07;;
28762;SDS011;15918;51.270;6.522;2023-04-24T04:52:37;12.02;;;8.85;;
28762;SDS011;15918;51.270;6.522;2023-04-24T04:55:02;11.15;;;8.77;;
28762;SDS011;15918;51.270;6.522;2023-04-24T04:57:28;9.00;;;8.10;;
28762;SDS011;15918;51.270;6.522;2023-04-24T04:59:55;12.35;;;8.57;;
28762;SDS011;15918;51.270;6.522;2023-04-24T05:02:20;12.18;;;9.90;;
28762;SDS011;15918;51.270;6.522;2023-04-24T05:04:46;13.43;;;9.07;;
28762;SDS011;15918;51.270;6.522;2023-04-24T05:07:12;12.55;;;9.05;;
28762;SDS011;15918;51.270;6.522;2023-04-24T05:09:37;12.00;;;8.88;;
28762;SDS011;15918;51.270;6.522;2023-04-24T05:12:03;10.40;;;8.95;;
28762;SDS011;15918;51.270;6.522;2023-04-24T05:14:28;13.00;;;9.90;;
28762;SDS011;15918;51.270;6.522;2023-04-24T05:16:54;11.50;;;8.27;;
28762;SDS011;15918;51.270;6.522;2023-04-24T05:19:20;11.95;;;8.85;;
28762;SDS011;15918;51.270;6.522;2023-04-24T05:21:45;13.68;;;8.82;;
28762;SDS011;15918;51.270;6.522;2023-04-24T05:24:11;12.77;;;9.05;;
28762;SDS011;15918;51.270;6.522;2023-04-24T05:26:36;9.80;;;8.02;;
28762;SDS011;15918;51.270;6.522;2023-04-24T05:29:02;10.90;;;7.75;;
28762;SDS011;15918;51.270;6.522;2023-04-24T05:31:28;11.38;;;8.18;;
28762;SDS011;15918;51.270;6.522;2023-04-24T05:33:54;9.25;;;8.25;;
28762;SDS011;15918;51.270;6.522;2023-04-24T05:36:20;10.63;;;7.63;;
28762;SDS011;15918;51.270;6.522;2023-04-24T05:38:45;14.25;;;8.88;;
28762;SDS011;15918;51.270;6.522;2023-04-24T05:41:11;10.93;;;7.57;;
28762;SDS011;15918;51.270;6.522;2023-04-24T05:43:36;12.48;;;7.88;;
28762;SDS011;15918;51.270;6.522;2023-04-24T05:46:02;10.55;;;7.82;;
28762;SDS011;15918;51.270;6.522;2023-04-24T05:48:28;11.07;;;8.20;;
28762;SDS011;15918;51.270;6.522;2023-04-24T05:50:53;9.02;;;7.72;;
28762;SDS011;15918;51.270;6.522;2023-04-24T05:53:19;8.65;;;6.93;;
28762;SDS011;15918;51.270;6.522;2023-04-24T05:55:45;9.25;;;7.00;;
28762;SDS011;15918;51.270;6.522;2023-04-24T05:58:11;8.18;;;7.20;;
28762;SDS011;15918;51.270;6.522;2023-04-24T06:00:37;8.73;;;6.70;;
28762;SDS011;15918;51.270;6.522;2023-04-24T06:03:04;8.13;;;7.22;;
28762;SDS011;15918;51.270;6.522;2023-04-24T06:05:30;8.50;;;7.05;;
28762;SDS011;15918;51.270;6.522;2023-04-24T06:07:56;8.50;;;6.35;;
28762;SDS011;15918;51.270;6.522;2023-04-24T06:10:21;7.32;;;6.63;;
28762;SDS011;15918;51.270;6.522;2023-04-24T06:12:47;8.90;;;6.40;;
28762;SDS011;15918;51.270;6.522;2023-04-24T06:15:13;9.30;;;6.30;;
28762;SDS011;15918;51.270;6.522;2023-04-24T06:17:38;9.93;;;6.35;;
28762;SDS011;15918;51.270;6.522;2023-04-24T06:20:04;6.43;;;5.82;;
28762;SDS011;15918;51.270;6.522;2023-04-24T06:22:31;6.45;;;5.25;;
28762;SDS011;15918;51.270;6.522;2023-04-24T06:24:57;9.20;;;6.25;;
28762;SDS011;15918;51.270;6.522;2023-04-24T06:27:22;7.47;;;5.80;;
28762;SDS011;15918;51.270;6.522;2023-04-24T06:29:48;5.72;;;5.22;;
28762;SDS011;15918;51.270;6.522;2023-04-24T06:32:20;9.65;;;5.05;;
28762;SDS011;15918;51.270;6.522;2023-04-24T06:34:47;7.38;;;4.82;;
28762;SDS011;15918;51.270;6.522;2023-04-24T06:37:12;6.20;;;4.75;;
28762;SDS011;15918;51.270;6.522;2023-04-24T06:39:39;7.50;;;5.07;;
28762;SDS011;15918;51.270;6.522;2023-04-24T06:42:04;5.32;;;4.82;;
28762;SDS011;15918;51.270;6.522;2023-04-24T06:44:30;5.30;;;4.53;;
28762;SDS011;15918;51.270;6.522;2023-04-24T06:46:56;4.82;;;4.32;;
28762;SDS011;15918;51.270;6.522;2023-04-24T06:49:21;4.43;;;4.03;;
28762;SDS011;15918;51.270;6.522;2023-04-24T06:51:47;5.00;;;4.22;;
28762;SDS011;15918;51.270;6.522;2023-04-24T06:54:12;4.25;;;3.83;;
28762;SDS011;15918;51.270;6.522;2023-04-24T06:56:38;4.18;;;3.17;;
28762;SDS011;15918;51.270;6.522;2023-04-24T06:59:03;4.45;;;3.13;;
28762;SDS011;15918;51.270;6.522;2023-04-24T07:01:29;4.60;;;2.67;;
28762;SDS011;15918;51.270;6.522;2023-04-24T07:03:55;6.15;;;2.75;;
28762;SDS011;15918;51.270;6.522;2023-04-24T07:06:20;2.63;;;2.35;;
28762;SDS011;15918;51.270;6.522;2023-04-24T07:08:47;3.08;;;2.20;;
28762;SDS011;15918;51.270;6.522;2023-04-24T07:11:13;2.85;;;1.80;;
28762;SDS011;15918;51.270;6.522;2023-04-24T07:13:38;1.80;;;1.48;;
28762;SDS011;15918;51.270;6.522;2023-04-24T07:16:06;2.78;;;1.90;;
28762;SDS011;15918;51.270;6.522;2023-04-24T07:18:33;5.55;;;2.75;;
28762;SDS011;15918;51.270;6.522;2023-04-24T07:21:01;1.98;;;1.40;;
28762;SDS011;15918;51.270;6.522;2023-04-24T07:23:27;2.92;;;1.63;;
28762;SDS011;15918;51.270;6.522;2023-04-24T07:25:52;3.17;;;1.63;;
28762;SDS011;15918;51.270;6.522;2023-04-24T07:28:18;4.40;;;1.70;;
28762;SDS011;15918;51.270;6.522;2023-04-24T07:30:44;3.75;;;0.80;;
28762;SDS011;15918;51.270;6.522;2023-04-24T07:33:10;3.42;;;1.20;;
28762;SDS011;15918;51.270;6.522;2023-04-24T07:35:37;2.78;;;0.90;;
28762;SDS011;15918;51.270;6.522;2023-04-24T07:38:03;2.85;;;0.82;;
28762;SDS011;15918;51.270;6.522;2023-04-24T07:40:29;1.17;;;1.08;;
28762;SDS011;15918;51.270;6.522;2023-04-24T07:42:55;1.40;;;0.90;;
28762;SDS011;15918;51.270;6.522;2023-04-24T07:45:20;2.88;;;1.63;;
28762;SDS011;15918;51.270;6.522;2023-04-24T07:47:47;3.55;;;1.13;;
28762;SDS011;15918;51.270;6.522;2023-04-24T07:50:13;3.67;;;1.30;;
28762;SDS011;15918;51.270;6.522;2023-04-24T07:52:39;3.88;;;1.70;;
28762;SDS011;15918;51.270;6.522;2023-04-24T07:55:05;4.72;;;2.80;;
28762;SDS011;15918;51.270;6.522;2023-04-24T07:57:30;3.72;;;3.05;;
28762;SDS011;15918;51.270;6.522;2023-04-24T07:59:56;4.65;;;3.05;;
28762;SDS011;15918;51.270;6.522;2023-04-24T08:02:22;5.40;;;2.97;;
28762;SDS011;15918;51.270;6.522;2023-04-24T08:04:51;3.75;;;2.80;;
28762;SDS011;15918;51.270;6.522;2023-04-24T08:07:18;2.80;;;2.40;;
28762;SDS011;15918;51.270;6.522;2023-04-24T08:09:44;3.40;;;2.30;;
28762;SDS011;15918;51.270;6.522;2023-04-24T08:12:10;3.78;;;2.83;;
28762;SDS011;15918;51.270;6.522;2023-04-24T08:14:36;6.35;;;3.63;;
28762;SDS011;15918;51.270;6.522;2023-04-24T08:17:01;6.63;;;4.43;;
28762;SDS011;15918;51.270;6.522;2023-04-24T08:19:28;8.18;;;4.13;;
28762;SDS011;15918;51.270;6.522;2023-04-24T08:21:53;4.72;;;3.47;;
28762;SDS011;15918;51.270;6.522;2023-04-24T08:24:19;6.00;;;4.00;;
28762;SDS011;15918;51.270;6.522;2023-04-24T08:26:45;4.88;;;3.95;;
28762;SDS011;15918;51.270;6.522;2023-04-24T08:29:10;4.68;;;2.97;;
28762;SDS011;15918;51.270;6.522;2023-04-24T08:31:36;4.53;;;2.47;;
28762;SDS011;15918;51.270;6.522;2023-04-24T08:34:02;3.42;;;2.60;;
28762;SDS011;15918;51.270;6.522;2023-04-24T08:36:27;3.50;;;3.20;;
28762;SDS011;15918;51.270;6.522;2023-04-24T08:38:53;5.13;;;4.63;;
28762;SDS011;15918;51.270;6.522;2023-04-24T08:41:19;5.95;;;5.25;;
28762;SDS011;15918;51.270;6.522;2023-04-24T08:43:48;7.93;;;5.85;;
28762;SDS011;15918;51.270;6.522;2023-04-24T08:46:14;7.10;;;5.40;;
28762;SDS011;15918;51.270;6.522;2023-04-24T08:48:41;5.85;;;4.07;;
28762;SDS011;15918;51.270;6.522;2023-04-24T08:51:07;5.97;;;4.43;;
28762;SDS011;15918;51.270;6.522;2023-04-24T08:53:34;5.03;;;3.55;;
28762;SDS011;15918;51.270;6.522;2023-04-24T08:56:01;5.70;;;3.50;;
28762;SDS011;15918;51.270;6.522;2023-04-24T08:58:27;4.68;;;3.95;;
28762;SDS011;15918;51.270;6.522;2023-04-24T09:00:54;5.63;;;3.58;;
28762;SDS011;15918;51.270;6.522;2023-04-24T09:03:20;6.60;;;4.72;;
28762;SDS011;15918;51.270;6.522;2023-04-24T09:05:46;9.23;;;6.63;;
28762;SDS011;15918;51.270;6.522;2023-04-24T09:08:14;8.77;;;6.72;;
28762;SDS011;15918;51.270;6.522;2023-04-24T09:10:42;15.30;;;10.40;;
28762;SDS011;15918;51.270;6.522;2023-04-24T09:13:08;10.50;;;6.65;;
28762;SDS011;15918;51.270;6.522;2023-04-24T09:15:35;7.70;;;5.65;;
28762;SDS011;15918;51.270;6.522;2023-04-24T09:18:02;10.50;;;6.15;;
28762;SDS011;15918;51.270;6.522;2023-04-24T09:20:28;10.55;;;7.05;;
28762;SDS011;15918;51.270;6.522;2023-04-24T09:22:54;13.93;;;6.90;;
28762;SDS011;15918;51.270;6.522;2023-04-24T09:25:21;11.30;;;6.70;;
28762;SDS011;15918;51.270;6.522;2023-04-24T09:27:47;11.35;;;7.13;;
28762;SDS011;15918;51.270;6.522;2023-04-24T09:30:13;10.05;;;6.70;;
28762;SDS011;15918;51.270;6.522;2023-04-24T09:32:45;10.55;;;7.28;;
28762;SDS011;15918;51.270;6.522;2023-04-24T09:35:12;12.88;;;7.93;;
28762;SDS011;15918;51.270;6.522;2023-04-24T09:37:39;16.98;;;8.70;;
28762;SDS011;15918;51.270;6.522;2023-04-24T09:40:28;18.27;;;10.88;;
28762;SDS011;15918;51.270;6.522;2023-04-24T09:42:53;22.43;;;11.33;;
28762;SDS011;15918;51.270;6.522;2023-04-24T09:45:21;28.77;;;16.63;;
28762;SDS011;15918;51.270;6.522;2023-04-24T09:47:51;24.77;;;14.80;;
28762;SDS011;15918;51.270;6.522;2023-04-24T09:50:18;25.65;;;14.43;;
28762;SDS011;15918;51.270;6.522;2023-04-24T09:52:56;27.70;;;14.27;;
28762;SDS011;15918;51.270;6.522;2023-04-24T09:55:23;22.73;;;14.00;;
28762;SDS011;15918;51.270;6.522;2023-04-24T09:57:53;29.38;;;17.67;;
28762;SDS011;15918;51.270;6.522;2023-04-24T10:00:24;31.33;;;18.73;;
28762;SDS011;15918;51.270;6.522;2023-04-24T10:02:54;22.95;;;13.73;;
28762;SDS011;15918;51.270;6.522;2023-04-24T10:05:24;16.17;;;11.32;;
28762;SDS011;15918;51.270;6.522;2023-04-24T10:08:01;16.73;;;9.23;;
28762;SDS011;15918;51.270;6.522;2023-04-24T10:10:29;17.27;;;9.63;;
28762;SDS011;15918;51.270;6.522;2023-04-24T10:12:58;18.25;;;9.32;;
28762;SDS011;15918;51.270;6.522;2023-04-24T10:15:25;26.90;;;9.65;;
28762;SDS011;15918;51.270;6.522;2023-04-24T10:17:51;19.33;;;9.63;;
28762;SDS011;15918;51.270;6.522;2023-04-24T10:20:27;22.35;;;9.85;;
28762;SDS011;15918;51.270;6.522;2023-04-24T10:22:55;16.40;;;9.20;;
28762;SDS011;15918;51.270;6.522;2023-04-24T10:25:22;21.73;;;9.63;;
28762;SDS011;15918;51.270;6.522;2023-04-24T10:27:50;18.38;;;8.82;;
28762;SDS011;15918;51.270;6.522;2023-04-24T10:30:17;16.60;;;8.00;;
28762;SDS011;15918;51.270;6.522;2023-04-24T10:32:44;23.02;;;8.43;;
28762;SDS011;15918;51.270;6.522;2023-04-24T10:35:12;23.65;;;8.70;;
28762;SDS011;15918;51.270;6.522;2023-04-24T10:37:39;21.33;;;8.90;;
28762;SDS011;15918;51.270;6.522;2023-04-24T10:40:10;19.63;;;8.73;;
28762;SDS011;15918;51.270;6.522;2023-04-24T10:42:40;15.55;;;7.50;;
28762;SDS011;15918;51.270;6.522;2023-04-24T10:45:18;16.70;;;8.13;;
28762;SDS011;15918;51.270;6.522;2023-04-24T10:47:53;18.55;;;8.00;;
28762;SDS011;15918;51.270;6.522;2023-04-24T10:50:27;19.23;;;7.57;;
28762;SDS011;15918;51.270;6.522;2023-04-24T10:52:54;22.33;;;7.07;;
28762;SDS011;15918;51.270;6.522;2023-04-24T10:55:39;17.05;;;6.03;;
28762;SDS011;15918;51.270;6.522;2023-04-24T10:58:12;14.45;;;6.45;;
28762;SDS011;15918;51.270;6.522;2023-04-24T11:00:40;13.65;;;6.00;;
28762;SDS011;15918;51.270;6.522;2023-04-24T11:03:28;15.40;;;6.10;;
28762;SDS011;15918;51.270;6.522;2023-04-24T11:14:10;16.08;;;4.88;;
28762;SDS011;15918;51.270;6.522;2023-04-24T11:24:23;13.40;;;5.78;;
28762;SDS011;15918;51.270;6.522;2023-04-24T11:26:53;15.73;;;5.50;;
28762;SDS011;15918;51.270;6.522;2023-04-24T11:29:37;13.88;;;5.30;;
28762;SDS011;15918;51.270;6.522;2023-04-24T11:32:14;12.00;;;6.00;;
28762;SDS011;15918;51.270;6.522;2023-04-24T11:34:53;18.52;;;5.60;;
28762;SDS011;15918;51.270;6.522;2023-04-24T11:37:21;15.02;;;5.30;;
28762;SDS011;15918;51.270;6.522;2023-04-24T11:39:50;13.30;;;5.47;;
28762;SDS011;15918;51.270;6.522;2023-04-24T11:42:16;16.52;;;5.88;;
28762;SDS011;15918;51.270;6.522;2023-04-24T11:44:43;9.63;;;4.65;;
28762;SDS011;15918;51.270;6.522;2023-04-24T11:47:09;11.88;;;5.15;;
28762;SDS011;15918;51.270;6.522;2023-04-24T11:49:37;20.42;;;5.38;;
28762;SDS011;15918;51.270;6.522;2023-04-24T11:52:03;12.68;;;5.15;;
28762;SDS011;15918;51.270;6.522;2023-04-24T11:54:30;13.95;;;4.28;;
28762;SDS011;15918;51.270;6.522;2023-04-24T11:56:56;9.50;;;4.35;;
28762;SDS011;15918;51.270;6.522;2023-04-24T11:59:21;11.38;;;3.97;;
28762;SDS011;15918;51.270;6.522;2023-04-24T12:01:47;11.13;;;4.47;;
28762;SDS011;15918;51.270;6.522;2023-04-24T12:04:14;16.65;;;4.72;;
28762;SDS011;15918;51.270;6.522;2023-04-24T12:07:00;11.07;;;4.13;;
28762;SDS011;15918;51.270;6.522;2023-04-24T12:12:08;13.20;;;5.05;;
28762;SDS011;15918;51.270;6.522;2023-04-24T12:14:41;15.57;;;6.40;;
28762;SDS011;15918;51.270;6.522;2023-04-24T12:17:08;13.27;;;6.57;;
28762;SDS011;15918;51.270;6.522;2023-04-24T12:19:33;15.13;;;6.70;;
28762;SDS011;15918;51.270;6.522;2023-04-24T12:22:00;13.18;;;6.97;;
28762;SDS011;15918;51.270;6.522;2023-04-24T12:24:26;13.10;;;6.70;;
28762;SDS011;15918;51.270;6.522;2023-04-24T12:26:52;14.70;;;7.28;;
28762;SDS011;15918;51.270;6.522;2023-04-24T12:29:21;15.95;;;6.38;;
28762;SDS011;15918;51.270;6.522;2023-04-24T12:31:48;14.15;;;6.78;;
28762;SDS011;15918;51.270;6.522;2023-04-24T12:34:23;12.02;;;6.35;;
28762;SDS011;15918;51.270;6.522;2023-04-24T12:36:50;12.80;;;5.50;;
28762;SDS011;15918;51.270;6.522;2023-04-24T12:39:17;14.18;;;6.18;;
28762;SDS011;15918;51.270;6.522;2023-04-24T12:41:51;16.08;;;6.82;;
28762;SDS011;15918;51.270;6.522;2023-04-24T12:44:28;12.80;;;6.32;;
28762;SDS011;15918;51.270;6.522;2023-04-24T12:46:59;10.63;;;5.90;;
28762;SDS011;15918;51.270;6.522;2023-04-24T12:49:25;11.18;;;6.10;;
28762;SDS011;15918;51.270;6.522;2023-04-24T12:51:51;13.68;;;7.25;;
28762;SDS011;15918;51.270;6.522;2023-04-24T12:54:17;10.23;;;6.35;;
28762;SDS011;15918;51.270;6.522;2023-04-24T12:56:43;11.55;;;6.57;;
28762;SDS011;15918;51.270;6.522;2023-04-24T12:59:09;12.48;;;5.57;;
28762;SDS011;15918;51.270;6.522;2023-04-24T13:01:34;10.98;;;4.38;;
28762;SDS011;15918;51.270;6.522;2023-04-24T13:04:00;4.05;;;3.20;;
28762;SDS011;15918;51.270;6.522;2023-04-24T13:06:26;7.57;;;2.85;;
28762;SDS011;15918;51.270;6.522;2023-04-24T13:08:51;6.75;;;2.42;;
28762;SDS011;15918;51.270;6.522;2023-04-24T13:11:17;6.65;;;2.47;;
28762;SDS011;15918;51.270;6.522;2023-04-24T13:13:43;7.82;;;2.13;;
28762;SDS011;15918;51.270;6.522;2023-04-24T13:16:08;3.15;;;1.70;;
28762;SDS011;15918;51.270;6.522;2023-04-24T13:18:34;3.95;;;1.80;;
28762;SDS011;15918;51.270;6.522;2023-04-24T13:21:00;6.32;;;1.70;;
28762;SDS011;15918;51.270;6.522;2023-04-24T13:23:26;4.55;;;1.73;;
28762;SDS011;15918;51.270;6.522;2023-04-24T13:25:51;6.20;;;1.80;;
28762;SDS011;15918;51.270;6.522;2023-04-24T13:28:20;5.88;;;2.05;;
28762;SDS011;15918;51.270;6.522;2023-04-24T13:30:45;3.90;;;1.88;;
28762;SDS011;15918;51.270;6.522;2023-04-24T13:33:11;3.15;;;1.90;;
28762;SDS011;15918;51.270;6.522;2023-04-24T13:35:37;4.85;;;1.80;;
28762;SDS011;15918;51.270;6.522;2023-04-24T13:38:02;4.40;;;2.10;;
28762;SDS011;15918;51.270;6.522;2023-04-24T13:40:30;7.50;;;2.30;;
28762;SDS011;15918;51.270;6.522;2023-04-24T13:42:56;5.63;;;2.28;;
28762;SDS011;15918;51.270;6.522;2023-04-24T13:45:23;6.85;;;2.22;;
28762;SDS011;15918;51.270;6.522;2023-04-24T13:47:48;4.88;;;1.98;;
28762;SDS011;15918;51.270;6.522;2023-04-24T13:50:14;6.78;;;1.92;;
28762;SDS011;15918;51.270;6.522;2023-04-24T13:52:40;5.78;;;1.77;;
28762;SDS011;15918;51.270;6.522;2023-04-24T13:55:06;3.85;;;2.08;;
28762;SDS011;15918;51.270;6.522;2023-04-24T13:57:32;5.88;;;2.03;;
28762;SDS011;15918;51.270;6.522;2023-04-24T13:59:58;5.47;;;2.00;;
28762;SDS011;15918;51.270;6.522;2023-04-24T14:02:28;4.45;;;1.88;;
28762;SDS011;15918;51.270;6.522;2023-04-24T14:04:54;5.72;;;1.67;;
28762;SDS011;15918;51.270;6.522;2023-04-24T14:07:20;3.92;;;1.75;;
28762;SDS011;15918;51.270;6.522;2023-04-24T14:09:46;4.82;;;1.80;;
28762;SDS011;15918;51.270;6.522;2023-04-24T14:12:11;6.97;;;2.15;;
28762;SDS011;15918;51.270;6.522;2023-04-24T14:14:37;6.70;;;1.98;;
28762;SDS011;15918;51.270;6.522;2023-04-24T14:17:03;7.28;;;2.08;;
28762;SDS011;15918;51.270;6.522;2023-04-24T14:19:28;5.30;;;2.00;;
28762;SDS011;15918;51.270;6.522;2023-04-24T14:21:54;5.32;;;1.75;;
28762;SDS011;15918;51.270;6.522;2023-04-24T14:24:21;4.80;;;1.83;;
28762;SDS011;15918;51.270;6.522;2023-04-24T14:26:47;4.13;;;2.00;;
28762;SDS011;15918;51.270;6.522;2023-04-24T14:29:12;3.15;;;1.75;;
28762;SDS011;15918;51.270;6.522;2023-04-24T14:31:38;2.65;;;1.40;;
28762;SDS011;15918;51.270;6.522;2023-04-24T14:34:04;5.65;;;2.33;;
28762;SDS011;15918;51.270;6.522;2023-04-24T14:36:29;5.75;;;2.35;;
28762;SDS011;15918;51.270;6.522;2023-04-24T14:38:56;4.60;;;2.45;;
28762;SDS011;15918;51.270;6.522;2023-04-24T14:41:21;6.15;;;2.28;;
28762;SDS011;15918;51.270;6.522;2023-04-24T14:43:47;4.70;;;2.13;;
28762;SDS011;15918;51.270;6.522;2023-04-24T14:46:13;4.25;;;1.95;;
28762;SDS011;15918;51.270;6.522;2023-04-24T14:48:38;2.75;;;2.05;;
28762;SDS011;15918;51.270;6.522;2023-04-24T14:51:04;4.57;;;2.00;;
28762;SDS011;15918;51.270;6.522;2023-04-24T14:53:30;2.88;;;1.73;;